Wetterstation Vordersexau
Wetterdaten: Woche 14.03.11 - 20.03.11 (KW11)
Datum Zeit Temp. A. Feuchte A. Luftdruck Regen Wind Richtung Taupunkt Windchill Windben
14.03.2011 00:00 7,3 C 87 % 1008,1 hPa 0,0 l/m 0,0 km/h SO 5,3 C 7,3 C 0,0 km/h
14.03.2011 01:00 6,9 C 87 % 1008,9 hPa 0,0 l/m 0,0 km/h SO 4,9 C 6,9 C 0,0 km/h
14.03.2011 02:00 6,9 C 86 % 1009,4 hPa 0,0 l/m 0,0 km/h SO 4,7 C 6,9 C 0,0 km/h
14.03.2011 03:00 6,6 C 86 % 1010,2 hPa 0,4 l/m 0,0 km/h S-SO 4,4 C 6,6 C 0,0 km/h
14.03.2011 04:00 7,0 C 86 % 1010,2 hPa 0,0 l/m 0,0 km/h SO 4,8 C 7,0 C 0,0 km/h
14.03.2011 05:00 7,1 C 86 % 1010,6 hPa 0,0 l/m 0,0 km/h O-NO 4,9 C 7,1 C 0,0 km/h
14.03.2011 06:00 7,3 C 85 % 1011,2 hPa 0,0 l/m 0,0 km/h O-SO 4,9 C 7,3 C 0,0 km/h
14.03.2011 07:00 7,8 C 86 % 1011,8 hPa 0,0 l/m 0,0 km/h SO 5,6 C 7,8 C 0,0 km/h
14.03.2011 08:00 9,1 C 87 % 1012,4 hPa 0,0 l/m 0,0 km/h SO 7,1 C 9,1 C 0,0 km/h
14.03.2011 09:00 11,8 C 85 % 1013,1 hPa 0,0 l/m 0,0 km/h S-SW 9,4 C 11,8 C 0,0 km/h
14.03.2011 10:00 17,3 C 71 % 1013,3 hPa 0,0 l/m 1,3 km/h W 12,0 C 17,3 C 0,7 km/h
14.03.2011 11:00 17,5 C 60 % 1013,2 hPa 0,0 l/m 16,2 km/h W 9,6 C 13,9 C 9,0 km/h
14.03.2011 12:00 17,8 C 56 % 1013,2 hPa 0,0 l/m 1,9 km/h W-NW 8,9 C 17,8 C 1,1 km/h
14.03.2011 13:00 19,1 C 53 % 1012,8 hPa 0,0 l/m 1,9 km/h S-SW 9,3 C 19,1 C 1,1 km/h
14.03.2011 14:00 20,6 C 47 % 1012,7 hPa 0,0 l/m 7,8 km/h NW 8,9 C 20,1 C 4,3 km/h
14.03.2011 15:00 22,8 C 41 % 1012,7 hPa 0,0 l/m 2,6 km/h N-NO 8,9 C 22,8 C 1,4 km/h
14.03.2011 16:00 17,6 C 49 % 1012,8 hPa 0,0 l/m 0,0 km/h NO 6,8 C 17,6 C 0,0 km/h
14.03.2011 17:00 24,5 C 36 % 1012,5 hPa 0,0 l/m 0,0 km/h N-NO 8,4 C 24,5 C 0,0 km/h
14.03.2011 18:00 14,3 C 55 % 1012,9 hPa 0,0 l/m 0,0 km/h O 5,4 C 14,3 C 0,0 km/h
14.03.2011 19:00 9,8 C 73 % 1013,3 hPa 0,0 l/m 0,0 km/h SO 5,2 C 9,8 C 0,0 km/h
14.03.2011 20:00 8,7 C 79 % 1013,5 hPa 0,0 l/m 0,0 km/h NO 5,3 C 8,7 C 0,0 km/h
14.03.2011 21:00 7,6 C 83 % 1013,5 hPa 0,0 l/m 0,0 km/h N-NO 4,9 C 7,6 C 0,0 km/h
14.03.2011 22:00 6,4 C 84 % 1013,3 hPa 0,0 l/m 0,0 km/h N 3,9 C 6,4 C 0,0 km/h
14.03.2011 23:00 6,2 C 85 % 1013,3 hPa 0,0 l/m 0,0 km/h S 3,9 C 6,2 C 0,0 km/h
15.03.2011 00:00 4,2 C 87 % 1013,2 hPa 0,0 l/m 0,0 km/h O-NO 2,2 C 4,2 C 0,0 km/h
15.03.2011 01:00 3,8 C 87 % 1012,9 hPa 0,0 l/m 0,0 km/h SO 1,8 C 3,8 C 0,0 km/h
15.03.2011 02:00 2,8 C 88 % 1012,8 hPa 0,0 l/m 0,0 km/h NO 1,0 C 2,8 C 0,0 km/h
15.03.2011 03:00 2,4 C 88 % 1012,3 hPa 0,0 l/m 0,0 km/h NO 0,6 C 2,4 C 0,0 km/h
15.03.2011 04:00 2,1 C 88 % 1012,4 hPa 0,0 l/m 0,0 km/h NO 0,3 C 2,1 C 0,0 km/h
15.03.2011 05:00 3,5 C 87 % 1012,6 hPa 0,0 l/m 0,0 km/h NO 1,5 C 3,5 C 0,0 km/h
15.03.2011 06:00 3,8 C 87 % 1012,7 hPa 0,0 l/m 0,0 km/h O-NO 1,8 C 3,8 C 0,0 km/h
15.03.2011 07:00 3,8 C 87 % 1012,4 hPa 0,0 l/m 0,0 km/h NO 1,8 C 3,8 C 0,0 km/h
15.03.2011 08:00 5,4 C 86 % 1012,3 hPa 0,0 l/m 0,0 km/h W 3,3 C 5,4 C 0,0 km/h
15.03.2011 09:00 6,4 C 87 % 1012,0 hPa 0,0 l/m 0,0 km/h NW 4,4 C 6,4 C 0,0 km/h
15.03.2011 10:00 7,9 C 88 % 1011,3 hPa 0,0 l/m 2,6 km/h W-NW 6,0 C 7,9 C 1,4 km/h
15.03.2011 11:00 9,5 C 84 % 1010,7 hPa 0,0 l/m 3,2 km/h S-SO 6,9 C 9,5 C 1,8 km/h
15.03.2011 12:00 14,9 C 74 % 1009,5 hPa 0,0 l/m 3,2 km/h SW 10,3 C 14,9 C 1,8 km/h
15.03.2011 13:00 17,2 C 63 % 1008,6 hPa 0,0 l/m 9,7 km/h W-SW 10,1 C 15,7 C 5,4 km/h
15.03.2011 14:00 18,5 C 58 % 1007,8 hPa 0,0 l/m 0,0 km/h S-SO 10,1 C 18,5 C 0,0 km/h
15.03.2011 15:00 22,6 C 50 % 1007,0 hPa 0,0 l/m 0,0 km/h N-NW 11,6 C 22,6 C 0,0 km/h
15.03.2011 16:00 24,9 C 45 % 1006,2 hPa 0,0 l/m 0,0 km/h S-SW 12,1 C 24,9 C 0,0 km/h
15.03.2011 17:00 22,8 C 47 % 1006,2 hPa 0,0 l/m 0,0 km/h S 10,9 C 22,8 C 0,0 km/h
15.03.2011 18:00 16,8 C 43 % 1006,1 hPa 0,0 l/m 21,4 km/h NO 4,2 C 11,8 C 11,9 km/h
15.03.2011 19:00 13,5 C 52 % 1006,0 hPa 0,0 l/m 2,6 km/h N-NO 3,8 C 13,5 C 1,4 km/h
15.03.2011 20:00 14,3 C 51 % 1005,9 hPa 0,0 l/m 0,0 km/h NO 4,3 C 14,3 C 0,0 km/h
15.03.2011 21:00 15,1 C 48 % 1005,7 hPa 0,0 l/m 3,2 km/h O-NO 4,2 C 15,1 C 1,8 km/h
15.03.2011 22:00 14,7 C 50 % 1005,1 hPa 0,0 l/m 5,8 km/h S-SW 4,4 C 14,7 C 3,2 km/h
15.03.2011 23:00 13,1 C 54 % 1004,7 hPa 0,0 l/m 0,0 km/h O-NO 4,0 C 13,1 C 0,0 km/h
16.03.2011 00:00 9,9 C 62 % 1004,5 hPa 0,0 l/m 0,0 km/h O-NO 3,0 C 9,9 C 0,0 km/h
16.03.2011 01:00 6,7 C 72 % 1004,2 hPa 0,0 l/m 0,0 km/h O-NO 2,0 C 6,7 C 0,0 km/h
16.03.2011 02:00 5,8 C 79 % 1003,1 hPa 0,0 l/m 0,0 km/h SO 2,4 C 5,8 C 0,0 km/h
16.03.2011 03:00 4,4 C 82 % 1002,4 hPa 0,0 l/m 0,0 km/h W-NW 1,6 C 4,4 C 0,0 km/h
16.03.2011 04:00 4,3 C 84 % 1001,8 hPa 0,0 l/m 0,0 km/h SO 1,8 C 4,3 C 0,0 km/h
16.03.2011 05:00 4,3 C 85 % 1001,3 hPa 0,0 l/m 0,0 km/h N-NW 2,0 C 4,3 C 0,0 km/h
16.03.2011 06:00 5,0 C 86 % 1001,6 hPa 0,0 l/m 1,9 km/h S-SO 2,9 C 5,0 C 1,1 km/h
16.03.2011 07:00 4,9 C 86 % 1002,0 hPa 0,0 l/m 0,0 km/h O-NO 2,8 C 4,9 C 0,0 km/h
16.03.2011 08:00 6,7 C 86 % 1002,2 hPa 0,0 l/m 0,0 km/h SW 4,5 C 6,7 C 0,0 km/h
16.03.2011 09:00 7,9 C 84 % 1001,8 hPa 0,0 l/m 0,0 km/h S 5,4 C 7,9 C 0,0 km/h
16.03.2011 10:00 9,5 C 80 % 1001,7 hPa 0,0 l/m 5,2 km/h S 6,2 C 9,5 C 2,9 km/h
16.03.2011 11:00 10,6 C 77 % 1002,2 hPa 0,0 l/m 8,4 km/h SW 6,7 C 9,2 C 4,7 km/h
16.03.2011 12:00 12,9 C 72 % 1001,8 hPa 0,0 l/m 7,8 km/h SW 8,0 C 12,0 C 4,3 km/h
16.03.2011 13:00 12,9 C 69 % 1001,5 hPa 0,0 l/m 5,8 km/h SW 7,4 C 12,9 C 3,2 km/h
16.03.2011 14:00 12,8 C 69 % 1001,0 hPa 0,0 l/m 2,6 km/h SW 7,3 C 12,8 C 1,4 km/h
16.03.2011 15:00 12,5 C 70 % 1000,6 hPa 0,0 l/m 0,0 km/h S-SO 7,2 C 12,5 C 0,0 km/h
16.03.2011 16:00 11,1 C 78 % 1001,0 hPa 0,0 l/m 7,1 km/h S-SO 7,4 C 10,6 C 4,0 km/h
16.03.2011 17:00 10,4 C 81 % 1001,0 hPa 0,0 l/m 0,0 km/h O-SO 7,3 C 10,4 C 0,0 km/h
16.03.2011 18:00 9,4 C 86 % 1001,1 hPa 0,0 l/m 0,0 km/h O 7,2 C 9,4 C 0,0 km/h
16.03.2011 19:00 8,8 C 87 % 1001,0 hPa 0,4 l/m 0,0 km/h O-SO 6,8 C 8,8 C 0,0 km/h
16.03.2011 20:00 8,5 C 87 % 1001,2 hPa 0,7 l/m 0,0 km/h O-SO 6,5 C 8,5 C 0,0 km/h
16.03.2011 21:00 8,3 C 87 % 1001,1 hPa 0,7 l/m 0,0 km/h O-SO 6,3 C 8,3 C 0,0 km/h
16.03.2011 22:00 8,3 C 87 % 1001,1 hPa 0,4 l/m 0,0 km/h O-SO 6,3 C 8,3 C 0,0 km/h
16.03.2011 23:00 8,3 C 87 % 1000,5 hPa 0,0 l/m 0,0 km/h SO 6,3 C 8,3 C 0,0 km/h
17.03.2011 00:00 8,6 C 86 % 1001,0 hPa 0,0 l/m 0,0 km/h SO 6,4 C 8,6 C 0,0 km/h
17.03.2011 01:00 8,6 C 86 % 1000,7 hPa 1,4 l/m 0,0 km/h W-NW 6,4 C 8,6 C 0,0 km/h
17.03.2011 02:00 8,1 C 86 % 1000,4 hPa 0,7 l/m 0,0 km/h N-NW 5,9 C 8,1 C 0,0 km/h
17.03.2011 03:00 7,6 C 85 % 1000,5 hPa 0,0 l/m 0,0 km/h W 5,2 C 7,6 C 0,0 km/h
17.03.2011 04:00 7,1 C 86 % 1000,7 hPa 0,0 l/m 0,0 km/h NW 4,9 C 7,1 C 0,0 km/h
17.03.2011 05:00 6,8 C 85 % 1001,0 hPa 0,0 l/m 0,0 km/h W-NW 4,5 C 6,8 C 0,0 km/h
17.03.2011 06:00 6,4 C 86 % 1001,5 hPa 0,4 l/m 1,9 km/h W 4,2 C 6,4 C 1,1 km/h
17.03.2011 07:00 6,1 C 85 % 1002,2 hPa 0,7 l/m 2,6 km/h W 3,8 C 6,1 C 1,4 km/h
17.03.2011 08:00 6,2 C 85 % 1002,7 hPa 0,0 l/m 0,0 km/h NW 3,9 C 6,2 C 0,0 km/h
17.03.2011 09:00 6,4 C 85 % 1003,4 hPa 0,0 l/m 0,0 km/h SW 4,1 C 6,4 C 0,0 km/h
17.03.2011 10:00 6,9 C 86 % 1003,9 hPa 0,0 l/m 0,0 km/h W-SW 4,7 C 6,9 C 0,0 km/h
17.03.2011 11:00 7,3 C 88 % 1004,7 hPa 0,0 l/m 1,3 km/h NW 5,4 C 7,3 C 0,7 km/h
17.03.2011 12:00 7,4 C 87 % 1005,7 hPa 0,4 l/m 0,0 km/h W 5,4 C 7,4 C 0,0 km/h
17.03.2011 13:00 7,3 C 87 % 1006,2 hPa 0,7 l/m 0,0 km/h W 5,3 C 7,3 C 0,0 km/h
17.03.2011 14:00 7,4 C 87 % 1006,7 hPa 0,0 l/m 1,9 km/h W 5,4 C 7,4 C 1,1 km/h
17.03.2011 15:00 7,3 C 87 % 1007,5 hPa 0,4 l/m 0,0 km/h S-SW 5,3 C 7,3 C 0,0 km/h
17.03.2011 16:00 7,3 C 87 % 1008,2 hPa 0,7 l/m 0,0 km/h S 5,3 C 7,3 C 0,0 km/h
17.03.2011 17:00 7,3 C 87 % 1009,2 hPa 0,0 l/m 0,0 km/h S-SW 5,3 C 7,3 C 0,0 km/h
17.03.2011 18:00 7,3 C 86 % 1010,1 hPa 0,0 l/m 0,0 km/h W 5,1 C 7,3 C 0,0 km/h
17.03.2011 19:00 7,4 C 86 % 1011,2 hPa 0,0 l/m 0,0 km/h SW 5,2 C 7,4 C 0,0 km/h
17.03.2011 20:00 7,3 C 86 % 1012,5 hPa 0,7 l/m 0,0 km/h W-SW 5,1 C 7,3 C 0,0 km/h
17.03.2011 21:00 7,3 C 86 % 1013,1 hPa 0,4 l/m 0,0 km/h W 5,1 C 7,3 C 0,0 km/h
17.03.2011 22:00 7,2 C 86 % 1014,4 hPa 0,4 l/m 0,0 km/h S-SW 5,0 C 7,2 C 0,0 km/h
17.03.2011 23:00 7,1 C 87 % 1015,0 hPa 0,4 l/m 4,5 km/h W-SW 5,1 C 7,1 C 2,5 km/h
18.03.2011 00:00 6,9 C 89 % 1015,5 hPa 0,0 l/m 5,2 km/h W-SW 5,2 C 6,9 C 2,9 km/h
18.03.2011 01:00 6,7 C 89 % 1016,4 hPa 0,0 l/m 18,8 km/h W-SW 5,0 C -0,5 C 10,4 km/h
18.03.2011 02:00 6,4 C 89 % 1016,9 hPa 0,0 l/m 23,3 km/h W-SW 4,7 C -2,5 C 13,0 km/h
18.03.2011 03:00 6,4 C 88 % 1017,4 hPa 0,0 l/m 14,9 km/h W-SW 4,6 C 0,8 C 8,3 km/h
18.03.2011 04:00 6,4 C 88 % 1017,9 hPa 0,0 l/m 20,1 km/h W 4,6 C -1,4 C 11,2 km/h
18.03.2011 05:00 6,3 C 87 % 1018,8 hPa 0,0 l/m 6,5 km/h W-SW 4,3 C 6,2 C 3,6 km/h
18.03.2011 06:00 6,2 C 87 % 1019,4 hPa 0,0 l/m 7,1 km/h W 4,2 C 5,6 C 4,0 km/h
18.03.2011 07:00 6,4 C 87 % 1020,1 hPa 0,0 l/m 1,3 km/h W 4,4 C 6,4 C 0,7 km/h
18.03.2011 08:00 6,6 C 87 % 1020,7 hPa 0,0 l/m 3,9 km/h NW 4,6 C 6,6 C 2,2 km/h
18.03.2011 09:00 7,2 C 85 % 1021,4 hPa 0,0 l/m 0,0 km/h NW 4,9 C 7,2 C 0,0 km/h
18.03.2011 10:00 7,9 C 83 % 1021,7 hPa 0,0 l/m 0,0 km/h W 5,2 C 7,9 C 0,0 km/h
18.03.2011 11:00 8,1 C 80 % 1021,8 hPa 0,0 l/m 34,3 km/h W-SW 4,9 C -2,9 C 19,1 km/h
18.03.2011 12:00 8,2 C 77 % 1022,0 hPa 0,0 l/m 26,6 km/h SW 4,4 C -1,0 C 14,8 km/h
18.03.2011 13:00 9,3 C 71 % 1021,7 hPa 0,0 l/m 24,6 km/h N-NW 4,3 C 1,0 C 13,7 km/h
18.03.2011 14:00 8,8 C 75 % 1021,8 hPa 0,0 l/m 3,2 km/h N-NO 4,6 C 8,8 C 1,8 km/h
18.03.2011 15:00 8,6 C 77 % 1021,7 hPa 0,0 l/m 0,0 km/h NO 4,8 C 8,6 C 0,0 km/h
18.03.2011 16:00 8,6 C 77 % 1021,9 hPa 0,0 l/m 0,0 km/h O-NO 4,8 C 8,6 C 0,0 km/h
18.03.2011 17:00 8,3 C 77 % 1022,1 hPa 0,0 l/m 0,0 km/h O-NO 4,5 C 8,3 C 0,0 km/h
18.03.2011 18:00 7,3 C 81 % 1022,2 hPa 0,0 l/m 0,0 km/h O-NO 4,3 C 7,3 C 0,0 km/h
18.03.2011 19:00 6,7 C 85 % 1022,8 hPa 0,0 l/m 0,0 km/h NO 4,4 C 6,7 C 0,0 km/h
18.03.2011 20:00 6,6 C 86 % 1022,4 hPa 0,0 l/m 0,0 km/h O-NO 4,4 C 6,6 C 0,0 km/h
18.03.2011 21:00 6,5 C 86 % 1022,5 hPa 0,0 l/m 0,0 km/h NO 4,3 C 6,5 C 0,0 km/h
18.03.2011 22:00 6,3 C 87 % 1022,3 hPa 0,0 l/m 0,0 km/h O-NO 4,3 C 6,3 C 0,0 km/h
18.03.2011 23:00 5,9 C 87 % 1022,2 hPa 0,0 l/m 0,0 km/h NO 3,9 C 5,9 C 0,0 km/h
19.03.2011 00:00 5,6 C 88 % 1022,0 hPa 0,4 l/m 0,0 km/h NO 3,8 C 5,6 C 0,0 km/h
19.03.2011 01:00 5,4 C 88 % 1021,7 hPa 0,4 l/m 0,0 km/h O-NO 3,6 C 5,4 C 0,0 km/h
19.03.2011 02:00 5,5 C 88 % 1021,4 hPa 0,0 l/m 0,0 km/h O 3,7 C 5,5 C 0,0 km/h
19.03.2011 03:00 5,6 C 88 % 1021,1 hPa 0,7 l/m 0,0 km/h O-NO 3,8 C 5,6 C 0,0 km/h
19.03.2011 04:00 5,5 C 88 % 1020,6 hPa 1,4 l/m 0,0 km/h O 3,7 C 5,5 C 0,0 km/h
19.03.2011 05:00 5,6 C 88 % 1020,6 hPa 0,7 l/m 0,0 km/h O-SO 3,8 C 5,6 C 0,0 km/h
19.03.2011 06:00 5,5 C 88 % 1021,0 hPa 1,1 l/m 0,0 km/h O-NO 3,7 C 5,5 C 0,0 km/h
19.03.2011 07:00 5,5 C 88 % 1021,6 hPa 1,4 l/m 0,0 km/h NO 3,7 C 5,5 C 0,0 km/h
19.03.2011 08:00 5,8 C 88 % 1022,3 hPa 0,7 l/m 0,0 km/h O-SO 4,0 C 5,8 C 0,0 km/h
19.03.2011 09:00 6,2 C 88 % 1023,2 hPa 0,4 l/m 0,0 km/h NO 4,4 C 6,2 C 0,0 km/h
19.03.2011 10:00 5,9 C 87 % 1024,1 hPa 0,0 l/m 0,0 km/h N-NO 3,9 C 5,9 C 0,0 km/h
19.03.2011 11:00 6,1 C 85 % 1025,2 hPa 0,0 l/m 0,0 km/h NO 3,8 C 6,1 C 0,0 km/h
19.03.2011 12:00 6,8 C 82 % 1025,6 hPa 0,0 l/m 1,9 km/h N-NO 3,9 C 6,8 C 1,1 km/h
19.03.2011 13:00 9,2 C 75 % 1025,7 hPa 0,0 l/m 0,0 km/h N-NO 5,0 C 9,2 C 0,0 km/h
19.03.2011 14:00 13,3 C 58 % 1026,1 hPa 0,0 l/m 6,5 km/h O 5,2 C 13,3 C 3,6 km/h
19.03.2011 15:00 12,6 C 60 % 1026,7 hPa 0,0 l/m 2,6 km/h O-NO 5,0 C 12,6 C 1,4 km/h
19.03.2011 16:00 10,1 C 62 % 1027,1 hPa 0,0 l/m 0,0 km/h O-NO 3,2 C 10,1 C 0,0 km/h
19.03.2011 17:00 7,1 C 73 % 1027,6 hPa 0,0 l/m 0,0 km/h NO 2,6 C 7,1 C 0,0 km/h
19.03.2011 18:00 6,3 C 76 % 1028,4 hPa 0,0 l/m 0,0 km/h O-NO 2,4 C 6,3 C 0,0 km/h
19.03.2011 19:00 5,2 C 79 % 1029,0 hPa 0,0 l/m 0,0 km/h N-NO 1,9 C 5,2 C 0,0 km/h
19.03.2011 20:00 2,9 C 85 % 1029,2 hPa 0,0 l/m 0,0 km/h NO 0,6 C 2,9 C 0,0 km/h
19.03.2011 21:00 1,8 C 87 % 1029,7 hPa 0,0 l/m 0,0 km/h N-NO -0,1 C 1,8 C 0,0 km/h
19.03.2011 22:00 1,1 C 88 % 1029,8 hPa 0,0 l/m 0,0 km/h O-NO -0,7 C 1,1 C 0,0 km/h
19.03.2011 23:00 0,2 C 88 % 1029,5 hPa 0,0 l/m 0,0 km/h O-NO -1,5 C 0,2 C 0,0 km/h
20.03.2011 00:00 -0,6 C 88 % 1029,5 hPa 0,0 l/m 0,0 km/h NO -2,3 C -0,6 C 0,0 km/h
20.03.2011 01:00 -0,7 C 88 % 1029,5 hPa 0,0 l/m 0,0 km/h N-NO -2,4 C -0,7 C 0,0 km/h
20.03.2011 02:00 -1,0 C 89 % 1029,2 hPa 0,0 l/m 1,3 km/h SO -2,6 C -1,0 C 0,7 km/h
20.03.2011 03:00 -1,9 C 89 % 1028,8 hPa 0,0 l/m 0,0 km/h O-SO -3,5 C -1,9 C 0,0 km/h
20.03.2011 04:00 -2,1 C 89 % 1028,9 hPa 0,0 l/m 0,0 km/h SO -3,7 C -2,1 C 0,0 km/h
20.03.2011 05:00 -2,4 C 89 % 1028,8 hPa 0,0 l/m 0,0 km/h SO -4,0 C -2,4 C 0,0 km/h
20.03.2011 06:00 -2,2 C 89 % 1029,0 hPa 0,0 l/m 0,0 km/h SO -3,8 C -2,2 C 0,0 km/h
20.03.2011 07:00 -1,7 C 89 % 1029,3 hPa 0,0 l/m 0,0 km/h SO -3,3 C -1,7 C 0,0 km/h
20.03.2011 08:00 7,4 C 85 % 1029,5 hPa 0,4 l/m 0,0 km/h W 5,0 C 7,4 C 0,0 km/h
20.03.2011 09:00 8,9 C 68 % 1029,7 hPa 0,0 l/m 0,0 km/h W 3,3 C 8,9 C 0,0 km/h
20.03.2011 10:00 14,4 C 52 % 1029,8 hPa 0,0 l/m 3,9 km/h N 4,7 C 14,4 C 2,2 km/h
20.03.2011 11:00 15,5 C 42 % 1029,6 hPa 0,0 l/m 5,2 km/h N-NO 2,6 C 15,5 C 2,9 km/h
20.03.2011 12:00 14,7 C 41 % 1029,1 hPa 0,0 l/m 1,9 km/h O-NO 1,6 C 14,7 C 1,1 km/h
20.03.2011 13:00 14,9 C 39 % 1028,9 hPa 0,0 l/m 0,0 km/h O-SO 1,1 C 14,9 C 0,0 km/h
20.03.2011 14:00 17,6 C 37 % 1028,2 hPa 0,0 l/m 4,5 km/h SO 2,7 C 17,6 C 2,5 km/h
20.03.2011 15:00 19,8 C 31 % 1027,8 hPa 0,0 l/m 1,9 km/h O-NO 2,2 C 19,8 C 1,1 km/h
20.03.2011 16:00 20,8 C 29 % 1027,8 hPa 0,0 l/m 0,0 km/h O-NO 2,1 C 20,8 C 0,0 km/h
20.03.2011 17:00 14,4 C 35 % 1027,9 hPa 0,0 l/m 3,2 km/h O-NO -0,9 C 14,4 C 1,8 km/h
20.03.2011 18:00 7,9 C 45 % 1028,4 hPa 0,0 l/m 0,0 km/h SO -3,3 C 7,9 C 0,0 km/h
20.03.2011 19:00 4,2 C 61 % 1029,0 hPa 0,0 l/m 0,0 km/h O-NO -2,6 C 4,2 C 0,0 km/h
20.03.2011 20:00 3,3 C 67 % 1029,4 hPa 0,0 l/m 0,0 km/h SO -2,2 C 3,3 C 0,0 km/h
20.03.2011 21:00 2,7 C 71 % 1029,5 hPa 0,0 l/m 8,4 km/h O -2,0 C 0,8 C 4,7 km/h
20.03.2011 22:00 2,3 C 71 % 1029,6 hPa 0,0 l/m 1,9 km/h O-SO -2,4 C 2,3 C 1,1 km/h
20.03.2011 23:00 1,6 C 73 % 1029,8 hPa 0,0 l/m 0,0 km/h O-NO -2,7 C 1,6 C 0,0 km/h
Min-Datum _ 20.03.11 20.03.11 17.03.11 - 14.03.11 - 20.03.11 18.03.11 14.03.11
_ Min-Zeit 05:30 16:30 02:30 - 00:30 - 05:30 11:30 00:30
Minimum _ -2,4 C 29 % 1000,4 hPa - 0,0 km/h - -4,0 C -2,9 C 0,0 km/h
Max-Datum _ 15.03.11 18.03.11 19.03.11 17.03.11 18.03.11 - 15.03.11 15.03.11 18.03.11
_ Max-Zeit 16:30 00:30 22:30 01:30 11:30 - 16:30 16:30 11:30
Maximum _ 24,9 C 89 % 1029,8 hPa 1,4 l/m 34,3 km/h
W-SW
- 12,1 C 24,9 C 19,1 km/h
W-SW
Durchschnitt _ 8,4 C 77 % 1014,8 hPa #17,1 l/m 2,2 km/h O-NO 4,1 C 7,9 C 1,2 km/h
www.sexauwetter.de